createdAt,value
2019-03-10T00:00:34.157Z,8.21
2019-03-10T00:03:24.026Z,8.17
2019-03-10T00:06:14.097Z,8.14
2019-03-10T00:09:04.837Z,8.13
2019-03-10T00:11:56.023Z,8.09
2019-03-10T00:14:47.941Z,8.05
2019-03-10T00:17:37.933Z,8.02
2019-03-10T00:20:28.635Z,8.01
2019-03-10T00:23:18.587Z,7.98
2019-03-10T00:26:08.417Z,8.00
2019-03-10T00:28:58.721Z,8.01
2019-03-10T00:31:48.710Z,7.98
2019-03-10T00:34:38.874Z,7.96
2019-03-10T00:37:29.193Z,8.01
2019-03-10T00:41:06.618Z,8.00
2019-03-10T00:44:37.501Z,7.97
2019-03-10T00:48:18.993Z,7.88
2019-03-10T00:51:58.907Z,7.88
2019-03-10T00:54:48.959Z,7.86
2019-03-10T00:57:38.640Z,7.89
2019-03-10T01:00:28.526Z,7.96
2019-03-10T01:03:18.397Z,8.01
2019-03-10T01:06:08.754Z,8.02
2019-03-10T01:08:58.699Z,8.05
2019-03-10T01:11:49.077Z,8.07
2019-03-10T01:14:38.765Z,8.13
2019-03-10T01:17:29.674Z,8.15
2019-03-10T01:20:19.471Z,8.22
2019-03-10T01:23:09.399Z,8.28
2019-03-10T01:25:59.495Z,8.34
2019-03-10T01:28:49.291Z,8.40
2019-03-10T01:32:11.437Z,8.43
2019-03-10T01:35:06.991Z,8.51
2019-03-10T01:37:56.949Z,8.53
2019-03-10T01:40:47.024Z,8.57
2019-03-10T01:43:36.821Z,8.62
2019-03-10T01:46:26.630Z,8.64
2019-03-10T01:49:17.771Z,8.68
2019-03-10T01:52:07.669Z,8.72
2019-03-10T01:54:57.649Z,8.74
2019-03-10T01:57:47.950Z,8.80
2019-03-10T02:00:37.935Z,8.80
2019-03-10T02:03:27.961Z,8.86
2019-03-10T02:06:19.304Z,8.88
2019-03-10T02:09:09.395Z,8.94
2019-03-10T02:12:00.898Z,9.00
2019-03-10T02:14:50.431Z,9.00
2019-03-10T02:17:40.039Z,9.04
2019-03-10T02:20:30.154Z,9.09
2019-03-10T02:23:20.322Z,9.13
2019-03-10T02:26:10.139Z,9.17
2019-03-10T02:29:00.226Z,9.18
2019-03-10T02:31:50.050Z,9.22
2019-03-10T02:34:40.359Z,9.22
2019-03-10T02:37:29.977Z,9.26
2019-03-10T02:40:20.067Z,9.28
2019-03-10T02:43:09.538Z,9.29
2019-03-10T02:45:59.488Z,9.29
2019-03-10T02:48:49.471Z,9.39
2019-03-10T02:51:39.544Z,9.44
2019-03-10T02:54:29.529Z,9.47
2019-03-10T02:57:19.452Z,9.48
2019-03-10T03:00:11.724Z,9.52
2019-03-10T03:03:01.307Z,9.54
2019-03-10T03:05:51.411Z,9.55
2019-03-10T03:08:41.367Z,9.59
2019-03-10T03:11:31.066Z,9.61
2019-03-10T03:14:20.553Z,9.65
2019-03-10T03:17:10.558Z,9.66
2019-03-10T03:20:00.596Z,9.68
2019-03-10T03:22:51.313Z,9.69
2019-03-10T03:25:41.542Z,9.67
2019-03-10T03:28:31.559Z,9.69
2019-03-10T03:31:21.588Z,9.58
2019-03-10T03:34:11.150Z,9.67
2019-03-10T03:37:01.430Z,9.69
2019-03-10T03:39:54.009Z,9.72
2019-03-10T03:42:44.009Z,7.91
2019-03-10T03:45:34.115Z,9.74
2019-03-10T03:48:24.065Z,9.79
2019-03-10T03:51:14.601Z,9.79
2019-03-10T03:54:05.392Z,9.76
2019-03-10T03:56:55.308Z,9.78
2019-03-10T03:59:45.323Z,9.82
2019-03-10T04:02:38.180Z,9.80
2019-03-10T04:05:28.021Z,9.83
2019-03-10T04:08:18.404Z,9.86
2019-03-10T04:11:08.713Z,9.90
2019-03-10T04:13:59.763Z,9.92
2019-03-10T04:16:49.234Z,9.93
2019-03-10T04:19:39.002Z,9.98
2019-03-10T04:22:28.649Z,9.98
2019-03-10T04:25:20.016Z,9.99
2019-03-10T04:28:10.218Z,9.96
2019-03-10T04:31:00.054Z,9.98
2019-03-10T04:33:50.136Z,9.97
2019-03-10T04:36:39.957Z,9.98
2019-03-10T04:39:29.451Z,9.94
2019-03-10T04:42:19.315Z,9.92
2019-03-10T04:45:10.188Z,9.91
2019-03-10T04:48:00.484Z,9.91
2019-03-10T04:50:50.399Z,9.93
2019-03-10T04:53:41.713Z,9.91
2019-03-10T04:56:56.326Z,9.92
2019-03-10T04:59:46.052Z,9.91
2019-03-10T05:02:36.001Z,9.93
2019-03-10T05:05:25.907Z,9.93
2019-03-10T05:08:15.586Z,9.95
2019-03-10T05:11:05.696Z,9.92
2019-03-10T05:13:54.813Z,9.94
2019-03-10T05:16:44.825Z,9.95
2019-03-10T05:19:34.389Z,9.98
2019-03-10T05:22:24.391Z,9.96
2019-03-10T05:25:14.907Z,10.02
2019-03-10T05:28:05.038Z,10.03
2019-03-10T05:30:55.083Z,10.06
2019-03-10T05:33:45.312Z,10.10
2019-03-10T05:36:34.818Z,10.12
2019-03-10T05:39:24.770Z,10.19
2019-03-10T05:42:14.354Z,10.19
2019-03-10T05:45:04.553Z,10.17
2019-03-10T05:47:54.681Z,10.23
2019-03-10T05:50:44.509Z,10.22
2019-03-10T05:53:34.306Z,10.26
2019-03-10T05:56:24.410Z,10.28
2019-03-10T05:59:14.262Z,10.32
2019-03-10T06:02:04.075Z,10.33
2019-03-10T06:04:53.878Z,10.37
2019-03-10T06:07:44.126Z,10.39
2019-03-10T06:10:34.001Z,10.42
2019-03-10T06:13:24.203Z,10.39
2019-03-10T06:16:13.998Z,10.36
2019-03-10T06:19:04.002Z,10.38
2019-03-10T06:21:54.196Z,10.34
2019-03-10T06:24:44.069Z,10.40
2019-03-10T06:27:34.361Z,10.34
2019-03-10T06:30:24.281Z,10.39
2019-03-10T06:33:14.287Z,10.33
2019-03-10T06:36:03.996Z,10.35
2019-03-10T06:38:55.201Z,10.37
2019-03-10T06:41:45.080Z,10.33
2019-03-10T06:44:34.761Z,10.36
2019-03-10T06:47:24.130Z,10.33
2019-03-10T06:50:13.993Z,10.35
2019-03-10T06:53:04.025Z,10.35
2019-03-10T06:55:53.859Z,10.40
2019-03-10T06:58:44.071Z,10.35
2019-03-10T07:01:34.017Z,10.37
2019-03-10T07:04:23.663Z,10.40
2019-03-10T07:07:13.434Z,10.42
2019-03-10T07:10:03.470Z,10.43
2019-03-10T07:12:53.301Z,10.43
2019-03-10T07:15:43.756Z,10.46
2019-03-10T07:18:33.873Z,10.49
2019-03-10T07:21:24.171Z,10.47
2019-03-10T07:24:14.272Z,10.45
2019-03-10T07:27:04.244Z,10.41
2019-03-10T07:30:03.929Z,10.34
2019-03-10T07:33:28.169Z,10.25
2019-03-10T07:36:27.657Z,10.19
2019-03-10T07:39:30.533Z,10.10
2019-03-10T07:42:32.894Z,10.03
2019-03-10T07:45:34.974Z,10.02
2019-03-10T07:48:45.232Z,9.99
2019-03-10T07:51:50.678Z,9.94
2019-03-10T07:55:00.431Z,9.90
2019-03-10T07:58:06.706Z,9.84
2019-03-10T08:01:18.484Z,9.73
2019-03-10T08:04:27.029Z,9.74
2019-03-10T08:07:28.364Z,9.76
2019-03-10T08:10:36.508Z,9.79
2019-03-10T08:13:41.711Z,9.79
2019-03-10T08:16:56.497Z,9.74
2019-03-10T08:20:04.695Z,9.68
2019-03-10T08:23:00.612Z,9.68
2019-03-10T08:26:08.842Z,9.70
2019-03-10T08:29:26.542Z,9.68
2019-03-10T08:32:33.886Z,9.63
2019-03-10T08:35:41.039Z,9.62
2019-03-10T08:38:52.776Z,9.57
2019-03-10T08:41:48.853Z,9.58
2019-03-10T08:44:45.348Z,9.58
2019-03-10T08:47:54.830Z,9.49
2019-03-10T08:50:51.064Z,9.51
2019-03-10T08:53:54.786Z,9.46
2019-03-10T08:56:56.529Z,9.48
2019-03-10T09:00:05.681Z,9.48
2019-03-10T09:03:13.876Z,9.45
2019-03-10T09:06:32.240Z,9.43
2019-03-10T09:09:45.973Z,9.41
2019-03-10T09:12:51.911Z,9.39
2019-03-10T09:16:04.260Z,9.35
2019-03-10T09:19:22.199Z,9.36
2019-03-10T09:22:34.108Z,9.37
2019-03-10T09:26:02.670Z,9.31
2019-03-10T09:29:09.963Z,9.37
2019-03-10T09:32:11.001Z,9.38
2019-03-10T09:35:06.328Z,9.40
2019-03-10T09:38:05.600Z,9.44
2019-03-10T09:41:05.128Z,9.45
2019-03-10T09:44:03.877Z,9.50
2019-03-10T09:47:21.941Z,9.56
2019-03-10T09:50:28.329Z,9.60
2019-03-10T09:53:37.333Z,9.66
2019-03-10T09:56:55.944Z,9.65
2019-03-10T10:00:03.486Z,9.68
2019-03-10T10:03:12.182Z,9.70
2019-03-10T10:06:16.340Z,9.74
2019-03-10T10:09:25.494Z,9.76
2019-03-10T10:12:32.072Z,9.79
2019-03-10T10:15:44.281Z,9.82
2019-03-10T10:18:51.682Z,9.87
2019-03-10T10:21:50.348Z,9.99
2019-03-10T10:24:58.917Z,10.01
2019-03-10T10:27:57.038Z,9.98
2019-03-10T10:31:01.975Z,9.87
2019-03-10T10:34:06.071Z,9.82
2019-03-10T10:37:14.914Z,9.76
2019-03-10T10:40:18.894Z,9.73
2019-03-10T10:43:30.451Z,9.74
2019-03-10T10:46:43.937Z,9.78
2019-03-10T10:49:51.622Z,9.78
2019-03-10T10:53:01.896Z,9.76
2019-03-10T10:56:03.464Z,9.81
2019-03-10T10:59:05.321Z,9.80
2019-03-10T11:02:03.514Z,9.79
2019-03-10T11:05:18.874Z,9.85
2019-03-10T11:08:20.424Z,9.87
2019-03-10T11:11:28.201Z,9.90
2019-03-10T11:14:40.730Z,9.88
2019-03-10T11:17:44.760Z,9.76
2019-03-10T11:20:44.066Z,9.63
2019-03-10T11:24:02.050Z,9.63
2019-03-10T11:27:04.256Z,9.65
2019-03-10T11:30:03.042Z,9.69
2019-03-10T11:33:01.538Z,9.71
2019-03-10T11:36:05.039Z,9.78
2019-03-10T11:39:11.097Z,9.83
2019-03-10T11:42:28.142Z,9.88
2019-03-10T11:45:35.856Z,9.87
2019-03-10T11:48:44.562Z,9.85
2019-03-10T11:51:45.184Z,9.84
2019-03-10T11:54:52.472Z,9.90
2019-03-10T11:57:47.279Z,9.94
2019-03-10T12:00:42.068Z,9.94
2019-03-10T12:03:53.102Z,9.83
2019-03-10T12:07:00.948Z,9.88
2019-03-10T12:09:50.582Z,9.77
2019-03-10T12:12:40.705Z,9.63
2019-03-10T12:15:30.642Z,9.69
2019-03-10T12:18:20.417Z,9.71
2019-03-10T12:21:10.244Z,9.47
2019-03-10T12:24:00.388Z,9.54
2019-03-10T12:26:50.656Z,9.47
2019-03-10T12:29:42.146Z,9.54
2019-03-10T12:32:32.013Z,9.63
2019-03-10T12:35:22.015Z,9.69
2019-03-10T12:38:11.642Z,9.82
2019-03-10T12:41:01.688Z,9.95
2019-03-10T12:43:52.499Z,10.07
2019-03-10T12:46:42.085Z,10.38
2019-03-10T12:49:31.640Z,10.66
2019-03-10T12:52:21.847Z,10.96
2019-03-10T12:55:11.793Z,11.20
2019-03-10T12:58:01.509Z,11.43
2019-03-10T13:00:51.529Z,11.53
2019-03-10T13:03:41.527Z,11.60
2019-03-10T13:06:31.656Z,11.57
2019-03-10T13:09:21.436Z,11.50
2019-03-10T13:12:11.378Z,11.50
2019-03-10T13:15:01.528Z,11.44
2019-03-10T13:17:51.763Z,11.48
2019-03-10T13:20:41.691Z,11.50
2019-03-10T13:23:31.445Z,11.62
2019-03-10T13:26:21.812Z,11.71
2019-03-10T13:29:12.056Z,11.78
2019-03-10T13:32:02.133Z,11.87
2019-03-10T13:34:52.190Z,11.91
2019-03-10T13:37:41.551Z,11.96
2019-03-10T13:40:31.685Z,11.98
2019-03-10T13:43:21.490Z,12.00
2019-03-10T13:46:11.191Z,12.07
2019-03-10T13:49:00.740Z,12.09
2019-03-10T13:51:50.457Z,12.19
2019-03-10T13:54:40.395Z,12.28
2019-03-10T13:57:30.516Z,12.45
2019-03-10T14:00:22.548Z,12.62
2019-03-10T14:03:12.223Z,12.79
2019-03-10T14:06:02.372Z,12.97
2019-03-10T14:08:52.932Z,13.00
2019-03-10T14:11:42.692Z,13.04
2019-03-10T14:14:32.335Z,13.02
2019-03-10T14:17:22.374Z,13.04
2019-03-10T14:20:12.405Z,13.01
2019-03-10T14:23:02.192Z,13.06
2019-03-10T14:25:52.127Z,12.92
2019-03-10T14:28:43.280Z,12.93
2019-03-10T14:31:33.620Z,12.84
2019-03-10T14:34:24.045Z,12.81
2019-03-10T14:37:13.288Z,12.75
2019-03-10T14:40:02.964Z,12.68
2019-03-10T14:42:53.324Z,12.65
2019-03-10T14:45:43.002Z,12.63
2019-03-10T14:48:32.933Z,12.66
2019-03-10T14:51:22.551Z,12.71
2019-03-10T14:54:12.496Z,12.70
2019-03-10T14:57:02.973Z,12.72
2019-03-10T14:59:53.028Z,12.77
2019-03-10T15:02:43.110Z,12.77
2019-03-10T15:05:32.860Z,12.89
2019-03-10T15:08:22.758Z,13.00
2019-03-10T15:11:12.636Z,13.06
2019-03-10T15:14:02.439Z,13.17
2019-03-10T15:16:52.630Z,13.16
2019-03-10T15:19:42.574Z,13.15
2019-03-10T15:22:32.222Z,13.16
2019-03-10T15:25:24.778Z,13.09
2019-03-10T15:28:13.896Z,13.12
2019-03-10T15:31:03.664Z,13.11
2019-03-10T15:33:53.628Z,13.08
2019-03-10T15:36:43.144Z,13.08
2019-03-10T15:39:32.805Z,13.10
2019-03-10T15:42:22.755Z,13.11
2019-03-10T15:45:13.322Z,13.16
2019-03-10T15:48:03.479Z,13.13
2019-03-10T15:50:53.387Z,13.07
2019-03-10T15:53:43.446Z,13.02
2019-03-10T15:56:33.606Z,12.95
2019-03-10T15:59:23.282Z,12.90
2019-03-10T16:02:13.203Z,12.82
2019-03-10T16:05:03.669Z,12.73
2019-03-10T16:07:53.753Z,12.70
2019-03-10T16:10:44.956Z,12.63
2019-03-10T16:13:35.130Z,12.65
2019-03-10T16:16:25.335Z,12.62
2019-03-10T16:19:15.090Z,12.55
2019-03-10T16:22:04.913Z,12.51
2019-03-10T16:24:55.248Z,12.49
2019-03-10T16:27:45.428Z,12.52
2019-03-10T16:30:35.380Z,12.39
2019-03-10T16:33:25.634Z,12.33
2019-03-10T16:36:15.831Z,12.21
2019-03-10T16:39:09.048Z,12.16
2019-03-10T16:41:58.982Z,11.99
2019-03-10T16:44:48.334Z,11.97
2019-03-10T16:47:38.248Z,11.91
2019-03-10T16:50:28.236Z,11.85
2019-03-10T16:53:27.197Z,11.84
2019-03-10T16:56:17.033Z,11.85
2019-03-10T16:59:06.610Z,11.81
2019-03-10T17:01:56.310Z,11.70
2019-03-10T17:04:45.780Z,11.69
2019-03-10T17:07:35.808Z,11.65
2019-03-10T17:10:26.269Z,11.65
2019-03-10T17:13:15.972Z,11.62
2019-03-10T17:16:06.128Z,11.60
2019-03-10T17:18:56.219Z,11.65
2019-03-10T17:21:46.264Z,11.61
2019-03-10T17:24:36.477Z,11.55
2019-03-10T17:27:26.392Z,11.60
2019-03-10T17:30:18.896Z,11.60
2019-03-10T17:33:10.285Z,11.53
2019-03-10T17:36:00.409Z,11.50
2019-03-10T17:38:49.977Z,11.51
2019-03-10T17:41:40.360Z,11.53
2019-03-10T17:44:40.362Z,11.59
2019-03-10T17:47:22.021Z,11.65
2019-03-10T17:50:13.298Z,11.69
2019-03-10T17:53:03.477Z,11.77
2019-03-10T17:55:53.255Z,11.80
2019-03-10T17:58:43.448Z,11.87
2019-03-10T18:01:33.888Z,11.85
2019-03-10T18:04:24.030Z,11.85
2019-03-10T18:07:14.189Z,11.84
2019-03-10T18:10:04.799Z,11.95
2019-03-10T18:12:54.896Z,11.93
2019-03-10T18:15:45.042Z,12.02
2019-03-10T18:18:35.102Z,12.00
2019-03-10T18:21:26.029Z,12.01
2019-03-10T18:24:16.026Z,11.92
2019-03-10T18:27:06.403Z,11.98
2019-03-10T18:29:55.873Z,11.91
2019-03-10T18:32:46.437Z,11.91
2019-03-10T18:35:36.278Z,11.88
2019-03-10T18:38:26.230Z,11.82
2019-03-10T18:41:16.403Z,11.80
2019-03-10T18:44:05.865Z,11.80
2019-03-10T18:46:54.827Z,11.75
2019-03-10T18:49:44.570Z,11.72
2019-03-10T18:52:34.443Z,11.76
2019-03-10T18:55:23.820Z,11.60
2019-03-10T18:58:19.750Z,11.57
2019-03-10T19:01:09.681Z,11.60
2019-03-10T19:03:59.513Z,11.56
2019-03-10T19:06:49.849Z,11.60
2019-03-10T19:09:39.519Z,11.54
2019-03-10T19:12:29.019Z,11.55
2019-03-10T19:15:18.881Z,11.55
2019-03-10T19:18:08.596Z,11.48
2019-03-10T19:20:59.258Z,11.53
2019-03-10T19:23:50.225Z,11.54
2019-03-10T19:26:40.137Z,11.40
2019-03-10T19:29:30.213Z,11.43
2019-03-10T19:32:19.543Z,11.33
2019-03-10T19:35:10.022Z,11.35
2019-03-10T19:38:00.107Z,11.26
2019-03-10T19:40:49.585Z,11.26
2019-03-10T19:43:39.815Z,11.24
2019-03-10T19:46:30.219Z,11.16
2019-03-10T19:49:20.095Z,11.06
2019-03-10T19:52:09.956Z,11.05
2019-03-10T19:54:59.888Z,10.96
2019-03-10T19:57:49.940Z,10.86
2019-03-10T20:00:40.187Z,10.71
2019-03-10T20:03:30.032Z,10.51
2019-03-10T20:06:20.205Z,10.33
2019-03-10T20:09:10.582Z,9.92
2019-03-10T20:12:02.420Z,9.53
2019-03-10T20:14:51.663Z,8.94
2019-03-10T20:17:41.226Z,8.56
2019-03-10T20:20:32.232Z,8.13
2019-03-10T20:23:22.400Z,7.97
2019-03-10T20:26:12.660Z,7.76
2019-03-10T20:29:02.358Z,7.43
2019-03-10T20:31:52.779Z,7.19
2019-03-10T20:34:42.655Z,6.96
2019-03-10T20:37:34.259Z,6.91
2019-03-10T20:40:24.033Z,6.72
2019-03-10T20:43:13.530Z,6.60
2019-03-10T20:46:03.389Z,6.49
2019-03-10T20:48:52.830Z,6.51
2019-03-10T20:51:42.673Z,6.48
2019-03-10T20:54:32.621Z,6.33
2019-03-10T20:57:22.153Z,6.39
2019-03-10T21:00:16.366Z,6.36
2019-03-10T21:03:07.476Z,6.35
2019-03-10T21:05:57.600Z,6.37
2019-03-10T21:08:47.115Z,6.37
2019-03-10T21:11:37.189Z,6.46
2019-03-10T21:14:27.547Z,6.50
2019-03-10T21:17:17.840Z,6.43
2019-03-10T21:20:10.071Z,6.45
2019-03-10T21:22:59.833Z,6.44
2019-03-10T21:25:50.108Z,6.45
2019-03-10T21:28:56.490Z,6.40
2019-03-10T21:32:01.819Z,6.37
2019-03-10T21:34:55.525Z,6.34
2019-03-10T21:37:51.072Z,6.45
2019-03-10T21:40:41.892Z,6.47
2019-03-10T21:43:31.619Z,6.45
2019-03-10T21:46:21.101Z,6.50
2019-03-10T21:49:10.808Z,6.47
2019-03-10T21:52:00.660Z,6.56
2019-03-10T21:54:50.545Z,6.56
2019-03-10T21:57:40.403Z,6.66
2019-03-10T22:00:30.696Z,6.67
2019-03-10T22:03:20.564Z,6.57
2019-03-10T22:06:10.077Z,6.67
2019-03-10T22:09:00.906Z,6.75
2019-03-10T22:11:52.362Z,6.73
2019-03-10T22:14:42.169Z,6.82
2019-03-10T22:17:35.300Z,6.88
2019-03-10T22:20:25.728Z,6.75
2019-03-10T22:23:15.563Z,6.85
2019-03-10T22:26:05.749Z,6.81
2019-03-10T22:28:55.781Z,6.75
2019-03-10T22:31:45.912Z,6.69
2019-03-10T22:34:35.809Z,6.69
2019-03-10T22:37:25.755Z,6.69
2019-03-10T22:40:15.780Z,6.68
2019-03-10T22:43:05.547Z,6.75
2019-03-10T22:45:55.281Z,6.75
2019-03-10T22:48:44.897Z,6.66
2019-03-10T22:51:34.724Z,6.65
2019-03-10T22:54:24.783Z,6.66
2019-03-10T22:57:15.041Z,6.69
2019-03-10T23:00:11.445Z,6.73
2019-03-10T23:03:02.874Z,6.74
2019-03-10T23:05:53.092Z,6.75
2019-03-10T23:08:55.550Z,6.74
2019-03-10T23:11:45.320Z,6.76
2019-03-10T23:14:34.867Z,6.79
2019-03-10T23:17:24.987Z,6.77
2019-03-10T23:20:14.955Z,6.77
2019-03-10T23:23:04.628Z,6.80
2019-03-10T23:25:54.932Z,6.75
2019-03-10T23:28:44.509Z,6.70
2019-03-10T23:31:34.593Z,6.63
2019-03-10T23:34:24.361Z,6.68
2019-03-10T23:37:14.478Z,6.64
2019-03-10T23:40:04.766Z,6.63
2019-03-10T23:42:55.248Z,6.66
2019-03-10T23:45:45.309Z,6.65
2019-03-10T23:48:35.477Z,6.63
2019-03-10T23:51:25.510Z,6.57
2019-03-10T23:54:15.664Z,6.65
2019-03-10T23:57:05.406Z,6.63
2019-03-10T23:59:54.959Z,6.59
